createdAt,value
2022-12-17T00:02:35.978Z,31.80
2022-12-17T00:05:24.499Z,33.73
2022-12-17T00:08:23.872Z,33.33
2022-12-17T00:11:09.497Z,35.73
2022-12-17T00:13:55.101Z,30.10
2022-12-17T00:16:44.883Z,27.20
2022-12-17T00:19:30.433Z,29.60
2022-12-17T00:22:16.140Z,29.33
2022-12-17T00:25:01.425Z,30.93
2022-12-17T00:27:46.988Z,32.33
2022-12-17T00:30:32.767Z,22.93
2022-12-17T00:33:18.341Z,23.67
2022-12-17T00:36:12.994Z,30.60
2022-12-17T00:38:58.455Z,27.93
2022-12-17T00:41:44.039Z,23.53
2022-12-17T00:44:29.720Z,30.30
2022-12-17T00:47:15.321Z,23.63
2022-12-17T00:50:00.679Z,27.20
2022-12-17T00:52:45.975Z,24.73
2022-12-17T00:55:31.190Z,23.00
2022-12-17T00:58:17.013Z,24.63
2022-12-17T01:01:02.496Z,25.43
2022-12-17T01:03:48.103Z,22.70
2022-12-17T01:06:33.606Z,30.73
2022-12-17T01:09:19.083Z,25.33
2022-12-17T01:12:04.702Z,25.87
2022-12-17T01:14:50.331Z,29.37
2022-12-17T01:17:35.794Z,24.07
2022-12-17T01:20:21.130Z,27.10
2022-12-17T01:23:06.612Z,25.10
2022-12-17T01:25:51.853Z,31.37
2022-12-17T01:28:42.660Z,26.70
2022-12-17T01:31:34.267Z,23.07
2022-12-17T01:34:20.803Z,25.93
2022-12-17T01:37:06.389Z,24.37
2022-12-17T01:39:51.940Z,24.87
2022-12-17T01:42:37.429Z,29.50
2022-12-17T01:45:23.265Z,27.13
2022-12-17T01:48:37.176Z,29.97
2022-12-17T01:51:30.999Z,28.43
2022-12-17T01:54:16.556Z,27.77
2022-12-17T01:57:02.680Z,27.93
2022-12-17T01:59:57.781Z,31.60
2022-12-17T02:02:43.271Z,37.70
2022-12-17T02:05:28.781Z,34.27
2022-12-17T02:08:23.207Z,30.10
2022-12-17T02:11:21.981Z,27.93
2022-12-17T02:14:45.500Z,30.30
2022-12-17T02:17:35.558Z,32.50
2022-12-17T02:20:48.676Z,35.00
2022-12-17T02:23:53.400Z,33.87
2022-12-17T02:26:57.977Z,33.80
2022-12-17T02:29:45.936Z,35.80
2022-12-17T02:32:32.821Z,32.73
2022-12-17T02:35:21.055Z,31.87
2022-12-17T02:38:08.317Z,30.83
2022-12-17T02:40:56.820Z,29.47
2022-12-17T02:43:44.056Z,29.67
2022-12-17T02:46:30.680Z,31.97
2022-12-17T02:49:15.932Z,28.80
2022-12-17T02:52:02.140Z,32.27
2022-12-17T02:54:52.467Z,29.80
2022-12-17T02:57:43.638Z,34.17
2022-12-17T03:00:29.835Z,33.10
2022-12-17T03:03:15.390Z,31.37
2022-12-17T03:06:00.854Z,32.20
2022-12-17T03:08:46.356Z,32.67
2022-12-17T03:11:31.856Z,32.57
2022-12-17T03:14:17.283Z,30.97
2022-12-17T03:17:02.908Z,34.77
2022-12-17T03:19:48.406Z,31.73
2022-12-17T03:22:33.936Z,33.10
2022-12-17T03:25:19.634Z,30.17
2022-12-17T03:28:05.298Z,31.87
2022-12-17T03:30:50.626Z,38.27
2022-12-17T03:33:36.415Z,34.67
2022-12-17T03:36:22.112Z,34.30
2022-12-17T03:39:07.726Z,32.13
2022-12-17T03:41:53.211Z,30.30
2022-12-17T03:44:38.844Z,33.57
2022-12-17T03:47:24.662Z,32.87
2022-12-17T03:50:10.041Z,37.20
2022-12-17T03:52:55.551Z,36.30
2022-12-17T03:55:41.078Z,32.97
2022-12-17T03:58:26.712Z,34.90
2022-12-17T04:01:12.082Z,34.20
2022-12-17T04:03:57.371Z,34.13
2022-12-17T04:06:42.840Z,38.10
2022-12-17T04:09:28.069Z,38.93
2022-12-17T04:12:13.540Z,40.43
2022-12-17T04:14:59.105Z,36.00
2022-12-17T04:17:45.081Z,44.10
2022-12-17T04:20:30.822Z,37.67
2022-12-17T04:23:15.987Z,36.30
2022-12-17T04:26:01.564Z,35.93
2022-12-17T04:28:46.980Z,38.73
2022-12-17T04:31:33.169Z,42.70
2022-12-17T04:34:18.531Z,41.73
2022-12-17T04:37:03.959Z,43.13
2022-12-17T04:39:49.764Z,41.83
2022-12-17T04:42:35.163Z,38.33
2022-12-17T04:45:20.503Z,39.93
2022-12-17T04:48:06.140Z,38.87
2022-12-17T04:50:51.617Z,38.93
2022-12-17T04:53:36.989Z,41.80
2022-12-17T04:56:22.620Z,38.53
2022-12-17T04:59:08.158Z,34.63
2022-12-17T05:01:53.728Z,40.23
2022-12-17T05:04:38.937Z,44.20
2022-12-17T05:07:24.448Z,42.37
2022-12-17T05:10:10.053Z,35.37
2022-12-17T05:12:55.551Z,37.77
2022-12-17T05:15:41.086Z,34.60
2022-12-17T05:18:27.360Z,36.43
2022-12-17T05:21:12.845Z,35.43
2022-12-17T05:23:58.314Z,35.87
2022-12-17T05:26:46.229Z,34.40
2022-12-17T05:29:31.827Z,31.07
2022-12-17T05:32:17.742Z,34.43
2022-12-17T05:35:03.468Z,35.00
2022-12-17T05:37:48.976Z,31.53
2022-12-17T05:40:34.476Z,32.10
2022-12-17T05:43:25.549Z,30.43
2022-12-17T05:46:11.317Z,31.43
2022-12-17T05:48:56.995Z,30.47
2022-12-17T05:51:42.528Z,38.10
2022-12-17T05:54:27.891Z,33.60
2022-12-17T05:57:13.662Z,34.63
2022-12-17T05:59:59.446Z,35.33
2022-12-17T06:02:45.173Z,39.27
2022-12-17T06:05:31.205Z,35.63
2022-12-17T06:08:26.700Z,35.97
2022-12-17T06:11:16.442Z,38.73
2022-12-17T06:14:02.015Z,37.63
2022-12-17T06:16:47.802Z,34.30
2022-12-17T06:19:33.638Z,36.37
2022-12-17T06:22:19.491Z,38.83
2022-12-17T06:25:05.247Z,39.90
2022-12-17T06:27:50.555Z,41.20
2022-12-17T06:30:36.294Z,35.67
2022-12-17T06:33:26.074Z,35.37
2022-12-17T06:36:19.715Z,40.40
2022-12-17T06:39:07.404Z,44.80
2022-12-17T06:41:53.068Z,42.07
2022-12-17T06:45:02.706Z,40.23
2022-12-17T06:47:58.933Z,39.87
2022-12-17T06:50:44.563Z,43.23
2022-12-17T06:53:30.082Z,44.63
2022-12-17T06:56:18.737Z,44.17
2022-12-17T06:59:04.077Z,44.50
2022-12-17T07:01:49.697Z,48.03
2022-12-17T07:04:34.829Z,45.23
2022-12-17T07:07:20.107Z,42.30
2022-12-17T07:10:12.181Z,39.87
2022-12-17T07:12:59.389Z,50.23
2022-12-17T07:15:44.909Z,42.63
2022-12-17T07:18:30.204Z,43.87
2022-12-17T07:21:15.609Z,50.40
2022-12-17T07:24:01.103Z,52.90
2022-12-17T07:26:46.705Z,48.03
2022-12-17T07:29:32.272Z,52.40
2022-12-17T07:32:18.037Z,48.73
2022-12-17T07:35:03.484Z,52.00
2022-12-17T07:37:48.804Z,54.83
2022-12-17T07:40:34.413Z,46.23
2022-12-17T07:43:20.013Z,49.43
2022-12-17T07:46:05.579Z,58.83
2022-12-17T07:48:50.890Z,51.13
2022-12-17T07:51:36.373Z,54.00
2022-12-17T07:54:21.912Z,52.97
2022-12-17T07:57:07.206Z,50.77
2022-12-17T07:59:52.868Z,52.97
2022-12-17T08:02:38.875Z,50.03
2022-12-17T08:05:27.807Z,59.63
2022-12-17T08:08:13.254Z,62.87
2022-12-17T08:10:58.624Z,50.93
2022-12-17T08:13:43.993Z,49.30
2022-12-17T08:16:29.368Z,45.60
2022-12-17T08:19:15.076Z,46.33
2022-12-17T08:22:00.477Z,50.63
2022-12-17T08:24:45.892Z,42.53
2022-12-17T08:27:31.465Z,47.37
2022-12-17T08:30:17.963Z,46.83
2022-12-17T08:33:03.444Z,48.93
2022-12-17T08:35:49.108Z,48.60
2022-12-17T08:38:34.336Z,48.30
2022-12-17T08:41:20.238Z,54.13
2022-12-17T08:44:05.868Z,49.43
2022-12-17T08:46:51.401Z,45.40
2022-12-17T08:49:36.687Z,50.50
2022-12-17T08:52:22.219Z,51.00
2022-12-17T08:55:07.628Z,47.40
2022-12-17T08:57:53.208Z,48.03
2022-12-17T09:00:41.041Z,46.43
2022-12-17T09:03:27.734Z,45.77
2022-12-17T09:06:13.491Z,49.40
2022-12-17T09:08:58.883Z,55.67
2022-12-17T09:11:44.596Z,56.10
2022-12-17T09:14:30.195Z,55.27
2022-12-17T09:17:18.705Z,52.87
2022-12-17T09:20:04.135Z,51.33
2022-12-17T09:22:49.718Z,46.47
2022-12-17T09:25:35.198Z,51.37
2022-12-17T09:28:21.592Z,54.37
2022-12-17T09:31:07.151Z,53.70
2022-12-17T09:33:53.363Z,52.33
2022-12-17T09:36:38.875Z,42.97
2022-12-17T09:39:24.337Z,46.97
2022-12-17T09:42:29.426Z,46.93
2022-12-17T09:45:31.163Z,48.80
2022-12-17T09:48:44.774Z,41.83
2022-12-17T09:51:44.712Z,49.20
2022-12-17T09:54:56.360Z,45.83
2022-12-17T09:57:49.171Z,47.73
2022-12-17T10:00:39.714Z,49.00
2022-12-17T10:03:37.072Z,38.83
2022-12-17T10:06:48.538Z,40.67
2022-12-17T10:09:37.129Z,46.80
2022-12-17T10:12:37.355Z,42.30
2022-12-17T10:15:24.217Z,43.63
2022-12-17T10:18:10.386Z,43.77
2022-12-17T10:21:01.162Z,34.63
2022-12-17T10:23:49.302Z,37.63
2022-12-17T10:26:49.778Z,38.73
2022-12-17T10:29:47.385Z,40.03
2022-12-17T10:32:33.621Z,38.40
2022-12-17T10:35:38.532Z,30.00
2022-12-17T10:38:49.924Z,36.50
2022-12-17T10:41:50.367Z,34.97
2022-12-17T10:44:49.636Z,33.87
2022-12-17T10:47:38.521Z,33.77
2022-12-17T10:50:44.070Z,34.00
2022-12-17T10:53:55.716Z,31.77
2022-12-17T10:56:45.352Z,28.90
2022-12-17T10:59:32.333Z,33.00
2022-12-17T11:02:18.698Z,31.73
2022-12-17T11:05:12.338Z,28.17
2022-12-17T11:08:02.191Z,33.00
2022-12-17T11:10:51.141Z,33.00
2022-12-17T11:13:45.825Z,32.47
2022-12-17T11:17:00.411Z,30.60
2022-12-17T11:20:01.698Z,35.97
2022-12-17T11:23:23.398Z,33.87
2022-12-17T11:26:28.725Z,35.17
2022-12-17T11:29:13.936Z,35.87
2022-12-17T11:32:17.018Z,39.17
2022-12-17T11:35:14.336Z,33.43
2022-12-17T11:38:32.959Z,33.63
2022-12-17T11:41:33.671Z,32.90
2022-12-17T11:44:47.069Z,31.47
2022-12-17T11:47:57.517Z,33.43
2022-12-17T11:51:11.303Z,32.30
2022-12-17T11:54:15.649Z,34.53
2022-12-17T11:57:06.307Z,32.90
2022-12-17T11:59:59.434Z,46.40
2022-12-17T12:03:01.977Z,34.97
2022-12-17T12:06:13.607Z,38.43
2022-12-17T12:09:05.100Z,36.57
2022-12-17T12:11:56.689Z,38.73
2022-12-17T12:15:03.494Z,33.90
2022-12-17T12:18:14.099Z,38.43
2022-12-17T12:21:02.595Z,34.10
2022-12-17T12:23:54.435Z,38.57
2022-12-17T12:26:49.369Z,33.53
2022-12-17T12:29:49.480Z,35.70
2022-12-17T12:33:06.822Z,33.70
2022-12-17T12:35:56.621Z,38.23
2022-12-17T12:38:55.987Z,37.47
2022-12-17T12:42:35.685Z,32.33
2022-12-17T12:45:49.390Z,37.20
2022-12-17T12:48:40.798Z,36.63
2022-12-17T12:51:44.711Z,35.10
2022-12-17T12:55:08.936Z,38.43
2022-12-17T12:58:00.590Z,39.57
2022-12-17T13:01:08.040Z,34.73
2022-12-17T13:04:08.810Z,43.33
2022-12-17T13:06:57.146Z,39.83
2022-12-17T13:09:30.683Z,42.80
2022-12-17T13:12:00.769Z,38.47
2022-12-17T13:14:46.477Z,37.33
2022-12-17T13:17:16.525Z,40.80
2022-12-17T13:19:58.705Z,37.63
2022-12-17T13:22:30.480Z,36.10
2022-12-17T13:25:20.564Z,38.47
2022-12-17T13:27:48.044Z,34.77
2022-12-17T13:30:17.895Z,37.33
2022-12-17T13:32:59.343Z,35.53
2022-12-17T13:35:47.438Z,36.43
2022-12-17T13:38:17.111Z,33.07
2022-12-17T13:41:10.457Z,35.60
2022-12-17T13:43:58.478Z,35.87
2022-12-17T13:46:47.898Z,31.07
2022-12-17T13:49:27.049Z,36.90
2022-12-17T13:52:17.338Z,42.30
2022-12-17T13:54:44.436Z,42.13
2022-12-17T13:57:16.707Z,36.27
2022-12-17T13:59:58.234Z,33.07
2022-12-17T14:02:33.862Z,35.00
2022-12-17T14:05:07.700Z,36.13
2022-12-17T14:07:38.855Z,36.07
2022-12-17T14:10:14.975Z,33.50
2022-12-17T14:12:41.809Z,35.00
2022-12-17T14:15:17.930Z,33.97
2022-12-17T14:17:47.379Z,35.80
2022-12-17T14:20:18.926Z,34.90
2022-12-17T14:23:00.439Z,36.00
2022-12-17T14:25:31.736Z,37.33
2022-12-17T14:28:00.598Z,34.40
2022-12-17T14:30:46.197Z,33.17
2022-12-17T14:33:32.387Z,36.70
2022-12-17T14:36:06.377Z,36.30
2022-12-17T14:38:45.055Z,33.63
2022-12-17T14:41:33.952Z,36.07
2022-12-17T14:44:02.877Z,32.47
2022-12-17T14:46:30.993Z,33.87
2022-12-17T14:49:03.910Z,38.83
2022-12-17T14:51:38.085Z,39.57
2022-12-17T14:54:14.228Z,36.40
2022-12-17T14:56:42.584Z,41.63
2022-12-17T14:59:43.568Z,37.70
2022-12-17T15:02:23.852Z,40.63
2022-12-17T15:05:01.025Z,36.33
2022-12-17T15:07:30.233Z,35.80
2022-12-17T15:09:57.769Z,38.13
2022-12-17T15:12:25.548Z,38.70
2022-12-17T15:14:52.374Z,41.87
2022-12-17T15:17:19.313Z,41.10
2022-12-17T15:19:50.196Z,43.60
2022-12-17T15:22:21.381Z,39.83
2022-12-17T15:24:48.162Z,42.37
2022-12-17T15:27:16.444Z,45.90
2022-12-17T15:29:44.204Z,41.77
2022-12-17T15:32:19.375Z,40.47
2022-12-17T15:34:46.983Z,44.50
2022-12-17T15:37:14.981Z,42.30
2022-12-17T15:39:41.936Z,42.53
2022-12-17T15:42:28.178Z,48.80
2022-12-17T15:44:55.105Z,44.57
2022-12-17T15:47:21.878Z,41.83
2022-12-17T15:49:48.775Z,43.60
2022-12-17T15:52:15.622Z,48.43
2022-12-17T15:54:42.955Z,43.47
2022-12-17T15:57:14.064Z,43.87
2022-12-17T15:59:45.183Z,43.80
2022-12-17T16:02:12.703Z,45.33
2022-12-17T16:04:41.060Z,43.63
2022-12-17T16:07:08.028Z,47.23
2022-12-17T16:09:35.061Z,49.07
2022-12-17T16:12:01.944Z,44.20
2022-12-17T16:14:28.803Z,38.13
2022-12-17T16:16:55.577Z,52.07
2022-12-17T16:19:22.483Z,47.03
2022-12-17T16:21:49.760Z,47.70
2022-12-17T16:24:16.713Z,41.53
2022-12-17T16:26:43.737Z,42.90
2022-12-17T16:29:10.604Z,37.53
2022-12-17T16:31:37.639Z,45.13
2022-12-17T16:34:08.895Z,45.37
2022-12-17T16:36:36.268Z,46.70
2022-12-17T16:39:04.111Z,47.50
2022-12-17T16:41:31.277Z,49.10
2022-12-17T16:43:58.094Z,45.00
2022-12-17T16:46:36.657Z,47.77
2022-12-17T16:49:07.847Z,51.37
2022-12-17T16:51:35.145Z,54.23
2022-12-17T16:54:08.085Z,46.40
2022-12-17T16:56:39.939Z,50.93
2022-12-17T16:59:08.370Z,44.50
2022-12-17T17:01:36.401Z,45.07
2022-12-17T17:04:04.948Z,41.10
2022-12-17T17:06:34.038Z,47.07
2022-12-17T17:09:04.460Z,44.07
2022-12-17T17:11:31.679Z,44.27
2022-12-17T17:13:58.837Z,51.27
2022-12-17T17:16:26.144Z,46.60
2022-12-17T17:18:53.952Z,47.37
2022-12-17T17:21:21.559Z,47.97
2022-12-17T17:23:53.642Z,49.47
2022-12-17T17:26:24.388Z,45.57
2022-12-17T17:28:51.875Z,43.90
2022-12-17T17:31:19.253Z,45.90
2022-12-17T17:33:48.675Z,44.57
2022-12-17T17:36:19.950Z,45.30
2022-12-17T17:38:48.391Z,48.60
2022-12-17T17:41:17.863Z,46.63
2022-12-17T17:43:44.970Z,45.87
2022-12-17T17:46:19.408Z,46.20
2022-12-17T17:48:49.094Z,48.70
2022-12-17T17:51:39.041Z,51.70
2022-12-17T17:54:14.241Z,50.40
2022-12-17T17:56:42.305Z,53.77
2022-12-17T17:59:15.888Z,54.50
2022-12-17T18:01:45.354Z,51.83
2022-12-17T18:04:14.927Z,54.47
2022-12-17T18:07:02.611Z,53.87
2022-12-17T18:09:30.325Z,52.30
2022-12-17T18:11:57.308Z,48.23
2022-12-17T18:14:24.100Z,48.77
2022-12-17T18:16:50.922Z,44.53
2022-12-17T18:19:20.844Z,42.07
2022-12-17T18:21:48.000Z,51.67
2022-12-17T18:24:21.466Z,51.57
2022-12-17T18:26:49.385Z,42.57
2022-12-17T18:29:22.345Z,51.57
2022-12-17T18:31:52.129Z,45.80
2022-12-17T18:34:22.514Z,43.63
2022-12-17T18:36:50.451Z,43.20
2022-12-17T18:39:18.862Z,39.77
2022-12-17T18:42:05.574Z,41.80
2022-12-17T18:44:35.973Z,39.90
2022-12-17T18:47:02.998Z,37.30
2022-12-17T18:49:30.112Z,37.63
2022-12-17T18:51:56.998Z,33.30
2022-12-17T18:54:27.029Z,38.90
2022-12-17T18:57:01.633Z,33.57
2022-12-17T18:59:30.456Z,34.80
2022-12-17T19:01:58.346Z,31.03
2022-12-17T19:04:26.162Z,34.27
2022-12-17T19:06:54.132Z,33.17
2022-12-17T19:09:29.253Z,35.63
2022-12-17T19:11:56.906Z,35.33
2022-12-17T19:14:25.168Z,37.43
2022-12-17T19:16:53.483Z,36.63
2022-12-17T19:19:21.466Z,38.03
2022-12-17T19:21:48.860Z,41.03
2022-12-17T19:24:18.422Z,33.93
2022-12-17T19:26:45.768Z,32.70
2022-12-17T19:29:13.881Z,32.60
2022-12-17T19:31:41.174Z,35.67
2022-12-17T19:34:11.962Z,37.37
2022-12-17T19:36:39.860Z,33.57
2022-12-17T19:39:09.251Z,30.57
2022-12-17T19:41:36.238Z,33.13
2022-12-17T19:44:06.228Z,28.20
2022-12-17T19:46:35.108Z,30.90
2022-12-17T19:49:03.451Z,34.97
2022-12-17T19:51:31.960Z,33.17
2022-12-17T19:54:03.432Z,50.17
2022-12-17T19:56:34.879Z,46.77
2022-12-17T19:59:04.955Z,49.87
2022-12-17T20:01:34.533Z,52.70
2022-12-17T20:04:01.704Z,52.13
2022-12-17T20:06:31.710Z,51.03
2022-12-17T20:08:59.957Z,54.83
2022-12-17T20:11:33.252Z,62.20
2022-12-17T20:14:00.281Z,67.57
2022-12-17T20:16:28.615Z,62.93
2022-12-17T20:18:56.209Z,55.27
2022-12-17T20:21:23.085Z,53.10
2022-12-17T20:23:50.522Z,56.60
2022-12-17T20:26:18.267Z,58.17
2022-12-17T20:28:46.123Z,57.27
2022-12-17T20:31:13.568Z,49.87
2022-12-17T20:33:40.472Z,48.27
2022-12-17T20:36:10.174Z,43.73
2022-12-17T20:38:38.224Z,45.10
2022-12-17T20:41:12.765Z,46.07
2022-12-17T20:43:40.292Z,46.10
2022-12-17T20:46:09.610Z,45.50
2022-12-17T20:48:41.430Z,44.50
2022-12-17T20:51:10.766Z,43.90
2022-12-17T20:53:38.101Z,47.33
2022-12-17T20:56:07.798Z,38.53
2022-12-17T20:58:34.702Z,46.73
2022-12-17T21:01:10.998Z,45.40
2022-12-17T21:03:38.800Z,43.93
2022-12-17T21:06:10.373Z,44.67
2022-12-17T21:08:40.372Z,44.57
2022-12-17T21:11:10.520Z,46.43
2022-12-17T21:13:38.077Z,46.00
2022-12-17T21:16:10.263Z,40.67
2022-12-17T21:18:37.833Z,38.47
2022-12-17T21:21:08.493Z,42.17
2022-12-17T21:23:37.228Z,41.03
2022-12-17T21:26:16.906Z,41.63
2022-12-17T21:28:51.077Z,36.50
2022-12-17T21:31:20.293Z,36.70
2022-12-17T21:33:48.405Z,38.17
2022-12-17T21:36:16.958Z,41.93
2022-12-17T21:38:44.332Z,42.17
2022-12-17T21:41:17.245Z,42.37
2022-12-17T21:43:44.213Z,44.97
2022-12-17T21:46:12.394Z,44.90
2022-12-17T21:48:42.366Z,40.20
2022-12-17T21:51:12.680Z,42.67
2022-12-17T21:53:45.668Z,43.23
2022-12-17T21:56:15.894Z,45.20
2022-12-17T21:58:45.095Z,41.20
2022-12-17T22:01:25.064Z,43.67
2022-12-17T22:03:54.299Z,44.33
2022-12-17T22:06:24.926Z,45.80
2022-12-17T22:08:56.271Z,50.77
2022-12-17T22:11:28.461Z,43.43
2022-12-17T22:14:07.385Z,49.53
2022-12-17T22:16:46.675Z,45.40
2022-12-17T22:19:16.090Z,43.23
2022-12-17T22:21:46.963Z,48.87
2022-12-17T22:24:15.960Z,41.43
2022-12-17T22:26:43.080Z,48.80
2022-12-17T22:29:10.338Z,47.23
2022-12-17T22:31:55.932Z,48.70
2022-12-17T22:34:56.682Z,51.20
2022-12-17T22:40:04.794Z,47.00
2022-12-17T22:44:09.764Z,50.93
2022-12-17T22:44:43.342Z,55.50
2022-12-17T22:46:02.290Z,46.67
2022-12-17T22:48:31.286Z,51.17
2022-12-17T22:51:07.106Z,51.70
2022-12-17T22:53:36.725Z,42.17
2022-12-17T22:56:15.826Z,42.40
2022-12-17T22:58:49.355Z,40.20
2022-12-17T23:01:22.655Z,38.50
2022-12-17T23:03:50.100Z,39.40
2022-12-17T23:06:18.339Z,42.03
2022-12-17T23:08:45.431Z,40.80
2022-12-17T23:11:16.655Z,38.83
2022-12-17T23:13:44.324Z,44.03
2022-12-17T23:16:13.260Z,44.70
2022-12-17T23:18:41.237Z,41.90
2022-12-17T23:21:14.616Z,41.53
2022-12-17T23:23:42.541Z,44.10
2022-12-17T23:26:12.890Z,48.07
2022-12-17T23:28:40.511Z,42.80
2022-12-17T23:31:12.608Z,40.47
2022-12-17T23:33:40.285Z,41.33
2022-12-17T23:36:10.276Z,47.37
2022-12-17T23:38:37.865Z,48.20
2022-12-17T23:41:10.362Z,44.27
2022-12-17T23:43:38.777Z,42.10
2022-12-17T23:46:07.071Z,44.30
2022-12-17T23:48:44.816Z,43.43
2022-12-17T23:51:16.676Z,40.77
2022-12-17T23:53:44.194Z,42.50
2022-12-17T23:56:16.174Z,46.90
2022-12-17T23:58:45.666Z,37.33
